• Join FlightAware (Why Join?)
  • Login
  • US Flag 
06:59AM EDT


 

Airport Tracker/Info


-or-


 

Live Flight TrackerFlight Track Log ✈ N6792M ✈ 21-Sep-2013 ✈ KAIG - 3D2

Flight Track Log - Related Links

Times and Time Zones

All times are in EDT time to prevent confusion due to time zone crossing. See the N6792M flight status page for this flight to view local times or setup timezone preferences in your user account.

Time Position Orientation Groundspeed Altitude Reporting Facility
EDT Latitude Longitude Course Direction KTS MPH feet Rate Location/Type
11:38AM 45.1600 -89.0597 90° East 85 98 3,000  Level Minneapolis Center
11:39AM 45.1606 -89.0203 89° East 99 114 3,900 840 Climbing Minneapolis Center
11:40AM 45.1592 -88.9800 93° East 101 116 4,800 480 Climbing Minneapolis Center
11:42AM 45.1603 -88.9383 88° East 102 117 5,000 60 Climbing Minneapolis Center
11:43AM 45.1603 -88.8842 90° East 116 133 5,000  Level Minneapolis Center
11:44AM 45.1526 -88.8013 90° East  Level FlightAware Approximate
11:44AM 45.1597 -88.8181 91° East 130 150 5,100  Level Minneapolis Center
11:45AM 45.1594 -88.7606 90° East 137 158 5,100  Level Minneapolis Center
11:46AM 45.1581 -88.7044 92° East 141 162 5,100 -60 Level Minneapolis Center
11:47AM 45.1572 -88.6481 91° East 142 163 5,000 -60 Descending Minneapolis Center
11:48AM 45.1547 -88.5922 94° East 143 165 5,000  Level Minneapolis Center
11:49AM 45.1531 -88.5381 92° East 141 162 5,000  Level Minneapolis Center
11:50AM 45.1525 -88.4822 91° East 138 159 5,000  Level Minneapolis Center
11:51AM 45.1500 -88.4264 94° East 140 161 5,100  Climbing Minneapolis Center
11:52AM 45.1478 -88.3586 93° East 144 166 5,100  Level Minneapolis Center
11:53AM 45.1483 -88.3031 89° East 143 165 5,100  Level Minneapolis Center
11:54AM 45.1478 -88.2481 91° East 141 162 5,200  Climbing Minneapolis Center
11:55AM 45.1492 -88.1922 88° East 141 162 5,100 -120 Descending Minneapolis Center
11:56AM 45.1483 -88.1336 91° East 148 170 5,000  Descending Minneapolis Center
11:57AM 45.1478 -88.0769 91° East 146 168 5,100  Climbing Minneapolis Center
11:58AM 45.1469 -88.0111 91° East 141 162 5,100  Level Minneapolis Center
11:59AM 45.1450 -87.9542 93° East 143 165 5,100  Level Minneapolis Center
12:00PM 45.1453 -87.8961 90° East 146 168 5,100  Level Minneapolis Center
12:01PM 45.1436 -87.8400 92° East 145 167 5,100  Level Minneapolis Center
12:02PM 45.1444 -87.7833 89° East 144 166 5,100  Level Minneapolis Center
12:03PM 45.1439 -87.7156 91° East 143 165 5,200 -120 Climbing Minneapolis Center
12:04PM 45.1428 -87.6578 92° East 145 167 4,900 -480 Descending Minneapolis Center
12:05PM 45.1403 -87.5972 93° East 150 173 4,300 -540 Descending Minneapolis Center
12:06PM 45.1400 -87.5356 90° East 153 176 3,900 -360 Descending Minneapolis Center
12:07PM 45.1389 -87.4775 92° East 152 175 3,600 -360 Descending Minneapolis Center
12:08PM 45.1378 -87.4217 92° East 148 170 3,200 -300 Descending Minneapolis Center
12:09PM 45.1361 -87.3553 92° East 143 165 3,100 -60 Descending Minneapolis Center
12:10PM 45.1333 -87.2997 94° East 143 165 3,100 -240 Level Minneapolis Center
12:11PM 45.1300 -87.2436 95° East 143 165 2,700 -600 Descending Minneapolis Center
12:13PM 45.1253 -87.1983 98° East 133 153 1,900 -480 Descending Minneapolis Center
12:14PM 45.1100 -87.1617 121° Southeast 129 148 1,800 -120 Descending Minneapolis Center